Time;durP1;ratioP1;P1;durP2;ratioP2;P2;SDS_P1;SDS_P2;PMS_P1;PMS_P2;Temp;Humidity;BMP_temperature;BMP_pressure;BME280_temperature;BME280_humidity;BME280_pressure;Samples;Min_cycle;Max_cycle;Signal;HPM_P1;HPM_P2
2021/06/12 00:02:14;;;;;;;9.43;5.70;;;22.10;96.00;;;;;;4990196;28;20038;-70
2021/06/12 00:04:39;;;;;;;8.63;6.63;;;22.10;96.10;;;;;;4990186;28;20042;-71
2021/06/12 00:07:05;;;;;;;9.88;7.40;;;22.10;96.00;;;;;;4989288;28;20141;-71
2021/06/12 00:09:31;;;;;;;11.07;7.22;;;22.00;96.10;;;;;;4990046;28;20089;-71
2021/06/12 00:11:56;;;;;;;9.40;7.93;;;22.10;96.20;;;;;;4991661;28;20093;-71
2021/06/12 00:14:22;;;;;;;14.45;7.68;;;22.00;96.40;;;;;;4990002;28;20365;-71
2021/06/12 00:16:48;;;;;;;8.90;6.75;;;22.00;96.10;;;;;;4989964;28;20591;-70
2021/06/12 00:19:13;;;;;;;9.65;7.38;;;22.00;96.30;;;;;;4983106;28;20043;-70
2021/06/12 00:21:40;;;;;;;9.80;7.13;;;22.00;96.30;;;;;;4971712;28;20364;-70
2021/06/12 00:24:07;;;;;;;13.20;6.88;;;22.00;96.30;;;;;;4990627;28;20452;-70
2021/06/12 00:26:34;;;;;;;10.00;6.45;;;21.90;96.60;;;;;;4989874;28;20046;-69
2021/06/12 00:29:00;;;;;;;8.80;6.45;;;22.00;96.60;;;;;;4989504;28;20129;-71
2021/06/12 00:31:27;;;;;;;11.60;7.28;;;21.90;96.60;;;;;;4981544;28;20113;-70
2021/06/12 00:33:52;;;;;;;10.25;7.63;;;21.90;96.60;;;;;;4970524;28;20039;-70
2021/06/12 00:36:20;;;;;;;9.70;7.15;;;21.90;96.70;;;;;;4972334;28;20710;-71
2021/06/12 00:38:46;;;;;;;12.43;7.30;;;21.90;96.80;;;;;;4970428;28;20448;-70
2021/06/12 00:41:12;;;;;;;11.95;7.05;;;21.90;96.80;;;;;;4970582;28;20047;-71
2021/06/12 00:43:40;;;;;;;11.98;8.32;;;22.00;96.80;;;;;;4970102;28;20054;-71
2021/06/12 00:46:06;;;;;;;13.02;7.78;;;21.90;96.90;;;;;;4970427;28;20065;-70
2021/06/12 00:48:31;;;;;;;13.93;6.90;;;21.90;97.00;;;;;;4970969;28;20102;-70
2021/06/12 00:50:57;;;;;;;12.05;6.00;;;21.90;97.00;;;;;;4991371;28;20030;-70
2021/06/12 00:53:37;;;;;;;12.55;5.72;;;21.90;97.00;;;;;;4990208;28;20459;-71
2021/06/12 00:56:11;;;;;;;8.60;6.10;;;21.90;97.20;;;;;;4989806;28;20108;-71
2021/06/12 00:58:42;;;;;;;13.10;6.80;;;21.90;97.10;;;;;;4989746;28;20061;-70
2021/06/12 01:01:13;;;;;;;13.18;7.60;;;21.90;97.20;;;;;;4989980;28;20038;-71
2021/06/12 01:03:40;;;;;;;13.70;7.57;;;21.90;97.10;;;;;;4987563;28;20027;-71
2021/06/12 01:06:10;;;;;;;12.02;7.78;;;22.00;97.10;;;;;;4971835;28;20511;-71
2021/06/12 01:08:37;;;;;;;11.02;7.78;;;22.00;96.90;;;;;;4986643;28;20475;-72
2021/06/12 01:11:04;;;;;;;9.33;7.07;;;21.90;97.40;;;;;;4989575;28;20163;-69
2021/06/12 01:13:50;;;;;;;11.60;6.82;;;22.00;97.00;;;;;;4989450;28;20132;-70
2021/06/12 01:16:26;;;;;;;14.83;7.90;;;22.00;97.10;;;;;;4989753;28;20038;-70
2021/06/12 01:18:54;;;;;;;11.60;7.47;;;22.00;97.10;;;;;;4989846;28;20479;-72
2021/06/12 01:21:44;;;;;;;15.50;7.72;;;22.00;97.00;;;;;;4990989;28;20037;-70
2021/06/12 01:24:21;;;;;;;14.75;7.18;;;21.90;97.20;;;;;;4988362;28;20042;-70
2021/06/12 01:27:02;;;;;;;11.18;8.05;;;21.80;97.30;;;;;;4988816;28;20039;-70
2021/06/12 01:30:05;;;;;;;11.45;7.80;;;21.80;97.70;;;;;;4988488;28;20076;-70
2021/06/12 01:32:33;;;;;;;11.07;7.75;;;21.70;97.80;;;;;;4972306;28;20035;-71
2021/06/12 01:35:04;;;;;;;10.70;7.35;;;21.70;98.10;;;;;;4971919;28;20085;-71
2021/06/12 01:37:33;;;;;;;11.57;7.50;;;21.70;97.60;;;;;;5001940;28;20069;-70
2021/06/12 01:40:00;;;;;;;13.43;7.35;;;21.80;97.50;;;;;;5011317;28;20048;-70
2021/06/12 01:42:27;;;;;;;15.15;9.25;;;21.80;97.80;;;;;;5012105;28;20018;-70
2021/06/12 01:44:52;;;;;;;16.42;8.88;;;21.80;97.80;;;;;;5013528;28;20053;-70
2021/06/12 01:47:20;;;;;;;16.48;8.52;;;21.70;97.80;;;;;;5012180;28;20038;-70
2021/06/12 01:49:48;;;;;;;12.43;8.13;;;21.80;97.80;;;;;;5012405;28;20096;-71
2021/06/12 01:52:15;;;;;;;13.82;8.63;;;21.70;97.90;;;;;;5012190;28;20103;-71
2021/06/12 01:54:42;;;;;;;11.73;8.70;;;21.70;98.30;;;;;;5012292;28;20340;-70
2021/06/12 01:57:07;;;;;;;9.68;7.22;;;21.60;98.20;;;;;;5013528;28;20034;-72
2021/06/12 01:59:35;;;;;;;13.63;7.72;;;21.60;98.30;;;;;;5011991;28;20045;-71
2021/06/12 02:02:03;;;;;;;12.90;8.83;;;21.60;98.30;;;;;;5012216;28;20140;-71
2021/06/12 02:04:29;;;;;;;15.60;9.48;;;21.50;98.30;;;;;;5011980;28;20092;-71
2021/06/12 02:07:02;;;;;;;15.23;8.13;;;21.60;98.30;;;;;;5011984;28;20034;-70
2021/06/12 02:09:30;;;;;;;14.20;9.05;;;21.50;98.40;;;;;;5011628;28;20025;-70
2021/06/12 02:11:57;;;;;;;16.80;9.77;;;21.60;98.50;;;;;;5013423;28;20022;-71
2021/06/12 02:14:23;;;;;;;12.75;8.95;;;21.60;98.40;;;;;;5011793;28;20042;-70
2021/06/12 02:16:51;;;;;;;13.55;9.57;;;21.60;98.40;;;;;;5011763;28;20046;-71
2021/06/12 02:19:17;;;;;;;16.87;10.70;;;21.60;98.60;;;;;;5011612;28;20038;-70
2021/06/12 02:21:44;;;;;;;14.82;10.30;;;21.50;98.90;;;;;;5011373;28;20026;-70
2021/06/12 02:24:12;;;;;;;13.05;9.05;;;21.50;98.80;;;;;;5013326;28;20102;-69
2021/06/12 02:26:44;;;;;;;15.30;9.18;;;21.40;98.90;;;;;;5011633;28;20126;-71
2021/06/12 02:29:12;;;;;;;18.58;11.20;;;21.40;98.80;;;;;;5011574;28;20126;-71
2021/06/12 02:31:43;;;;;;;15.32;10.52;;;21.50;98.70;;;;;;5011781;28;20037;-71
2021/06/12 02:34:09;;;;;;;19.15;11.15;;;21.60;98.60;;;;;;5011541;28;20447;-70
2021/06/12 02:36:35;;;;;;;16.13;11.13;;;21.60;98.60;;;;;;5011404;28;20026;-70
2021/06/12 02:39:01;;;;;;;20.63;11.68;;;21.50;98.80;;;;;;5012812;28;20050;-70
2021/06/12 02:41:27;;;;;;;19.23;12.25;;;21.50;98.80;;;;;;5011527;28;20113;-71
2021/06/12 02:43:53;;;;;;;18.95;12.35;;;21.50;99.00;;;;;;5010815;28;20153;-71
2021/06/12 02:46:23;;;;;;;20.70;12.60;;;21.20;99.30;;;;;;5010926;28;20474;-71
2021/06/12 02:48:58;;;;;;;20.52;13.02;;;21.30;99.20;;;;;;5010681;28;20042;-71
2021/06/12 02:51:25;;;;;;;17.98;12.77;;;21.30;99.40;;;;;;5011105;28;20022;-70
2021/06/12 02:53:52;;;;;;;19.83;12.70;;;21.20;99.50;;;;;;5011469;28;20057;-70
2021/06/12 02:56:19;;;;;;;15.50;11.93;;;21.20;99.50;;;;;;5010907;28;20044;-71
2021/06/12 02:58:46;;;;;;;15.60;12.10;;;21.20;99.50;;;;;;5010854;28;20263;-70
2021/06/12 03:01:14;;;;;;;22.58;12.90;;;21.30;99.50;;;;;;5011205;28;20364;-70
2021/06/12 03:03:40;;;;;;;25.92;12.52;;;21.30;99.50;;;;;;5011098;28;20054;-70
2021/06/12 03:06:07;;;;;;;15.90;11.23;;;21.30;99.60;;;;;;5012338;28;20033;-71
2021/06/12 03:08:39;;;;;;;20.20;12.87;;;21.30;99.40;;;;;;5009818;28;20037;-71
2021/06/12 03:11:07;;;;;;;21.90;12.55;;;21.20;99.50;;;;;;5010812;28;20259;-71
2021/06/12 03:13:36;;;;;;;15.45;11.82;;;21.00;99.80;;;;;;5010084;28;20044;-72
2021/06/12 03:16:01;;;;;;;;;;;21.10;99.80;;;;;;5011384;28;20064;-71
2021/06/12 03:18:28;;;;;;;24.55;12.63;;;21.10;99.60;;;;;;5010867;28;19907;-71
2021/06/12 03:20:58;;;;;;;19.58;12.15;;;21.10;99.70;;;;;;5012086;28;20034;-72
2021/06/12 03:23:26;;;;;;;17.75;12.07;;;21.10;99.60;;;;;;5010436;28;20033;-71
2021/06/12 03:25:53;;;;;;;18.83;11.88;;;21.00;99.50;;;;;;5010556;28;20467;-72
2021/06/12 03:28:19;;;;;;;18.00;12.32;;;20.90;99.50;;;;;;5010299;28;20129;-70
2021/06/12 03:30:46;;;;;;;18.20;11.77;;;21.00;99.50;;;;;;5010397;28;20037;-71
2021/06/12 03:33:12;;;;;;;20.92;12.13;;;21.00;99.40;;;;;;5010763;28;20061;-70
2021/06/12 03:35:39;;;;;;;23.17;13.13;;;20.80;99.70;;;;;;5010217;28;20050;-71
2021/06/12 03:38:05;;;;;;;19.88;13.65;;;20.80;99.80;;;;;;5010300;28;20341;-72
2021/06/12 03:40:31;;;;;;;21.17;13.80;;;20.70;99.90;;;;;;5009794;28;20349;-72
2021/06/12 03:42:57;;;;;;;22.63;13.20;;;20.60;99.90;;;;;;5010079;28;20033;-71
2021/06/12 03:45:24;;;;;;;23.90;13.27;;;20.70;99.90;;;;;;5010389;28;20061;-71
2021/06/12 03:47:51;;;;;;;24.30;12.93;;;20.70;99.90;;;;;;5010222;28;20135;-71
2021/06/12 03:50:18;;;;;;;20.47;13.27;;;20.60;99.90;;;;;;5010221;28;20327;-70
2021/06/12 03:52:45;;;;;;;23.03;13.63;;;20.60;99.90;;;;;;5009905;28;20065;-71
2021/06/12 03:55:11;;;;;;;21.35;12.52;;;20.60;99.90;;;;;;5009860;28;20041;-71
2021/06/12 03:57:38;;;;;;;20.55;12.68;;;20.70;99.80;;;;;;5009636;28;20029;-72
2021/06/12 04:00:09;;;;;;;18.98;13.00;;;20.80;99.70;;;;;;5011462;28;20034;-70
2021/06/12 04:02:34;;;;;;;24.88;13.52;;;20.80;99.70;;;;;;5010112;28;20553;-71
2021/06/12 04:05:00;;;;;;;20.38;12.50;;;20.80;99.60;;;;;;5008821;28;20117;-71
2021/06/12 04:07:26;;;;;;;21.77;12.57;;;20.70;99.60;;;;;;5009676;28;20046;-71
2021/06/12 04:09:51;;;;;;;22.13;13.10;;;20.70;99.70;;;;;;5009618;28;20360;-71
2021/06/12 04:12:17;;;;;;;20.17;11.57;;;20.70;99.70;;;;;;5011323;28;20464;-71
2021/06/12 04:14:43;;;;;;;18.80;12.02;;;20.70;99.70;;;;;;5009419;28;20125;-70
2021/06/12 04:17:08;;;;;;;22.85;12.18;;;20.80;99.60;;;;;;5009653;28;20538;-71
2021/06/12 04:19:38;;;;;;;23.40;12.80;;;20.70;99.60;;;;;;5009933;28;20427;-71
2021/06/12 04:22:04;;;;;;;22.52;13.18;;;20.70;99.50;;;;;;5009484;28;20042;-70
2021/06/12 04:24:30;;;;;;;21.52;12.10;;;20.80;99.40;;;;;;5009343;28;20021;-70
2021/06/12 04:26:56;;;;;;;25.42;12.70;;;20.70;99.40;;;;;;5010881;28;20033;-71
2021/06/12 04:29:21;;;;;;;22.85;13.70;;;20.80;99.40;;;;;;5009286;28;20088;-71
2021/06/12 04:31:47;;;;;;;22.25;13.13;;;20.80;99.20;;;;;;5009631;28;20041;-71
2021/06/12 04:34:12;;;;;;;23.15;12.40;;;20.80;99.20;;;;;;5009675;28;20561;-72
2021/06/12 04:36:38;;;;;;;20.50;12.18;;;20.80;99.10;;;;;;5009431;28;20033;-72
2021/06/12 04:39:04;;;;;;;24.48;13.13;;;20.80;99.20;;;;;;5009623;28;20282;-71
2021/06/12 04:41:30;;;;;;;25.10;13.00;;;20.60;99.30;;;;;;5009533;28;20045;-70
2021/06/12 04:43:56;;;;;;;23.80;14.32;;;20.70;99.30;;;;;;5009282;28;20480;-70
2021/06/12 04:46:21;;;;;;;25.58;14.80;;;20.80;99.20;;;;;;5008061;28;20060;-71
2021/06/12 04:48:47;;;;;;;28.23;15.38;;;20.80;99.30;;;;;;5009252;28;20053;-70
2021/06/12 04:51:13;;;;;;;31.15;16.65;;;20.80;99.20;;;;;;5010927;28;20428;-70
2021/06/12 04:53:38;;;;;;;28.08;15.32;;;20.70;99.20;;;;;;5009220;28;20038;-71
2021/06/12 04:56:04;;;;;;;26.83;15.73;;;20.70;99.70;;;;;;5009430;28;20053;-70
2021/06/12 04:58:30;;;;;;;26.60;14.75;;;20.70;99.40;;;;;;5009148;28;20042;-71
2021/06/12 05:00:55;;;;;;;26.40;15.10;;;20.60;99.50;;;;;;5008409;28;20487;-71
2021/06/12 05:03:21;;;;;;;29.92;15.27;;;20.70;99.50;;;;;;5010799;28;20041;-70
2021/06/12 05:05:48;;;;;;;26.58;15.55;;;20.70;99.40;;;;;;5009526;28;20037;-71
2021/06/12 05:08:14;;;;;;;28.90;15.88;;;20.70;99.50;;;;;;5009263;28;20038;-71
2021/06/12 05:10:40;;;;;;;25.73;14.70;;;20.70;99.50;;;;;;5010859;28;20042;-70
2021/06/12 05:13:06;;;;;;;26.42;16.35;;;20.90;99.50;;;;;;5012406;28;20045;-70
2021/06/12 05:15:32;;;;;;;30.92;16.42;;;20.80;99.40;;;;;;5011756;28;20026;-70
2021/06/12 05:18:00;;;;;;;29.25;16.73;;;20.80;99.30;;;;;;5014503;28;20024;-71
2021/06/12 05:20:26;;;;;;;28.45;17.13;;;20.80;99.50;;;;;;5012516;28;20070;-69
2021/06/12 05:22:51;;;;;;;32.80;16.20;;;20.70;99.60;;;;;;5012884;28;20498;-71
2021/06/12 05:25:18;;;;;;;29.05;15.93;;;20.70;99.70;;;;;;5012498;28;20061;-71
2021/06/12 05:27:43;;;;;;;29.60;17.77;;;20.70;99.60;;;;;;5012351;28;20060;-71
2021/06/12 05:30:10;;;;;;;29.48;16.75;;;20.60;99.70;;;;;;5014090;28;20026;-71
2021/06/12 05:32:35;;;;;;;29.70;17.08;;;20.60;99.80;;;;;;5011679;28;20034;-70
2021/06/12 05:35:02;;;;;;;29.63;16.38;;;20.60;99.80;;;;;;5012565;28;20037;-70
2021/06/12 05:37:28;;;;;;;34.53;16.52;;;20.60;99.90;;;;;;5011111;28;20034;-71
2021/06/12 05:39:53;;;;;;;31.58;17.58;;;20.60;99.90;;;;;;5012505;28;20099;-72
2021/06/12 05:42:19;;;;;;;29.67;16.48;;;20.60;99.90;;;;;;5013846;28;20448;-71
2021/06/12 05:44:46;;;;;;;31.67;17.83;;;20.50;99.90;;;;;;5011007;28;20054;-71
2021/06/12 05:47:12;;;;;;;27.88;16.92;;;20.60;99.90;;;;;;5012053;28;20046;-71
2021/06/12 05:49:38;;;;;;;37.40;18.15;;;20.60;99.90;;;;;;5012327;28;20033;-71
2021/06/12 05:52:04;;;;;;;29.35;16.27;;;20.50;99.90;;;;;;5012203;28;20041;-71
2021/06/12 05:54:29;;;;;;;31.65;17.13;;;20.60;99.90;;;;;;5012006;28;20041;-71
2021/06/12 05:56:55;;;;;;;26.15;16.50;;;20.60;99.90;;;;;;5013582;28;20080;-71
2021/06/12 05:59:22;;;;;;;29.65;16.00;;;20.70;99.90;;;;;;5012150;28;20042;-71
2021/06/12 06:01:48;;;;;;;33.72;17.85;;;20.60;99.90;;;;;;5011955;28;20091;-71
2021/06/12 06:04:13;;;;;;;29.35;17.42;;;20.70;99.90;;;;;;5010490;28;20072;-70
2021/06/12 06:06:39;;;;;;;31.70;16.77;;;20.60;99.90;;;;;;5012133;28;20029;-70
2021/06/12 06:09:05;;;;;;;30.75;17.38;;;20.60;99.90;;;;;;5013584;28;20041;-71
2021/06/12 06:11:30;;;;;;;30.55;17.20;;;20.60;99.90;;;;;;5011716;28;20049;-71
2021/06/12 06:13:56;;;;;;;37.00;17.58;;;20.50;99.90;;;;;;5011695;28;20056;-71
2021/06/12 06:16:22;;;;;;;30.95;17.70;;;20.40;99.90;;;;;;5009041;28;20375;-71
2021/06/12 06:18:48;;;;;;;30.15;17.13;;;20.40;99.90;;;;;;5011228;28;20523;-70
2021/06/12 06:21:14;;;;;;;33.13;17.17;;;20.30;99.90;;;;;;5013318;28;20097;-70
2021/06/12 06:23:39;;;;;;;31.58;17.38;;;20.40;99.90;;;;;;5011579;28;20042;-68
2021/06/12 06:26:05;;;;;;;28.55;17.13;;;20.50;99.90;;;;;;5010421;28;20057;-69
2021/06/12 06:28:31;;;;;;;37.05;17.58;;;20.50;99.90;;;;;;5027035;28;20045;-70
2021/06/12 06:30:56;;;;;;;27.98;17.02;;;20.40;99.90;;;;;;5011510;28;20357;-70
2021/06/12 06:33:24;;;;;;;34.22;16.60;;;20.50;99.90;;;;;;5013354;28;20030;-71
2021/06/12 06:35:50;;;;;;;30.45;16.05;;;20.60;99.90;;;;;;5011809;28;20212;-70
2021/06/12 06:38:16;;;;;;;31.25;17.95;;;20.60;99.90;;;;;;5011396;28;20048;-70
2021/06/12 06:40:41;;;;;;;34.58;18.17;;;20.70;99.90;;;;;;5010148;28;20038;-70
2021/06/12 06:43:08;;;;;;;27.35;16.75;;;20.80;99.90;;;;;;5011261;28;20045;-69
2021/06/12 06:45:33;;;;;;;31.00;17.45;;;20.70;99.90;;;;;;5010549;28;20123;-69
2021/06/12 06:47:59;;;;;;;33.30;17.23;;;20.70;99.90;;;;;;5012485;28;20452;-70
2021/06/12 06:50:25;;;;;;;33.38;17.58;;;20.70;99.90;;;;;;5011041;28;20030;-71
2021/06/12 06:52:50;;;;;;;35.10;19.17;;;20.60;99.90;;;;;;5011032;28;20069;-71
2021/06/12 06:55:17;;;;;;;38.92;21.23;;;20.50;99.90;;;;;;5010485;28;20034;-71
2021/06/12 06:57:43;;;;;;;34.38;18.17;;;20.60;99.90;;;;;;5011258;28;20106;-70
2021/06/12 07:00:10;;;;;;;33.78;17.95;;;20.60;99.90;;;;;;5012991;28;20034;-70
2021/06/12 07:02:35;;;;;;;32.10;17.27;;;20.70;99.90;;;;;;5009579;28;20033;-71
2021/06/12 07:05:01;;;;;;;35.17;18.13;;;20.70;99.90;;;;;;5010496;28;20100;-71
2021/06/12 07:07:27;;;;;;;41.88;18.65;;;20.70;99.90;;;;;;5009937;28;20584;-71
2021/06/12 07:09:53;;;;;;;31.50;18.02;;;20.70;99.90;;;;;;5010877;28;20048;-71
2021/06/12 07:12:19;;;;;;;33.30;18.17;;;20.70;99.90;;;;;;5012281;28;20109;-70
2021/06/12 07:14:45;;;;;;;29.75;17.90;;;20.90;99.90;;;;;;5010773;28;20129;-70
2021/06/12 07:17:11;;;;;;;32.25;17.35;;;20.90;99.90;;;;;;5010345;28;20096;-71
2021/06/12 07:19:38;;;;;;;30.00;17.17;;;21.10;99.90;;;;;;5010792;28;20030;-71
2021/06/12 07:22:03;;;;;;;27.98;17.45;;;21.10;99.80;;;;;;5010798;28;20073;-72
2021/06/12 07:24:30;;;;;;;37.08;17.85;;;21.10;99.70;;;;;;5010503;28;20072;-71
2021/06/12 07:26:56;;;;;;;29.10;16.85;;;21.20;99.60;;;;;;5011859;28;20049;-72
2021/06/12 07:29:21;;;;;;;31.88;16.63;;;21.30;99.40;;;;;;5010673;28;20475;-71
2021/06/12 07:31:47;;;;;;;32.25;17.40;;;21.30;99.30;;;;;;5010522;28;20437;-69
2021/06/12 07:34:13;;;;;;;28.17;15.35;;;21.20;99.50;;;;;;5008933;28;20451;-71
2021/06/12 07:36:39;;;;;;;31.67;15.75;;;21.30;99.40;;;;;;5010478;28;20045;-71
2021/06/12 07:39:06;;;;;;;24.42;14.25;;;21.40;99.20;;;;;;5012036;28;20385;-71
2021/06/12 07:41:32;;;;;;;25.92;13.55;;;21.40;99.10;;;;;;5009929;28;20455;-69
2021/06/12 07:43:59;;;;;;;27.50;14.27;;;21.40;99.00;;;;;;5009406;28;20054;-69
2021/06/12 07:46:25;;;;;;;25.48;13.82;;;21.50;98.90;;;;;;5010089;28;20046;-70
2021/06/12 07:48:51;;;;;;;22.75;12.70;;;21.30;99.00;;;;;;5010029;28;20052;-70
2021/06/12 07:51:16;;;;;;;20.85;12.65;;;21.30;99.00;;;;;;5010414;28;20022;-70
2021/06/12 07:53:42;;;;;;;21.17;13.15;;;21.30;99.10;;;;;;5009952;28;20120;-69
2021/06/12 07:56:08;;;;;;;20.98;13.05;;;21.40;98.90;;;;;;5009860;28;20134;-68
2021/06/12 07:58:33;;;;;;;21.25;12.95;;;21.40;98.80;;;;;;5009506;28;20038;-67
2021/06/12 08:00:59;;;;;;;24.45;13.00;;;21.50;98.80;;;;;;5009536;28;20034;-69
2021/06/12 08:03:25;;;;;;;21.23;12.88;;;21.50;98.70;;;;;;5008813;28;20108;-69
2021/06/12 08:05:50;;;;;;;19.73;11.52;;;21.30;99.00;;;;;;5011041;28;20344;-69
2021/06/12 08:08:16;;;;;;;20.73;12.13;;;21.50;98.90;;;;;;5009524;28;20073;-69
2021/06/12 08:10:42;;;;;;;22.15;13.18;;;21.70;98.70;;;;;;5009427;28;20523;-69
2021/06/12 08:13:07;;;;;;;17.45;11.75;;;21.80;98.40;;;;;;5008093;28;20109;-71
2021/06/12 08:15:33;;;;;;;22.42;11.77;;;21.80;98.40;;;;;;5009296;28;20177;-71
2021/06/12 08:17:59;;;;;;;19.92;11.75;;;21.90;98.40;;;;;;5011247;28;20077;-72
2021/06/12 08:20:25;;;;;;;20.25;10.63;;;22.00;98.50;;;;;;5009354;28;20037;-71
2021/06/12 08:22:51;;;;;;;18.25;10.57;;;22.30;98.20;;;;;;5009850;28;20203;-72
2021/06/12 08:25:18;;;;;;;20.75;10.88;;;22.30;97.70;;;;;;5008144;28;20176;-69
2021/06/12 08:27:44;;;;;;;16.50;9.82;;;22.30;97.70;;;;;;5009524;28;20048;-69
2021/06/12 08:30:11;;;;;;;18.25;10.93;;;22.30;97.60;;;;;;5010907;28;20021;-68
2021/06/12 08:32:37;;;;;;;15.68;10.02;;;22.40;97.80;;;;;;5009688;28;20034;-68
2021/06/12 08:35:03;;;;;;;16.42;11.07;;;22.30;97.60;;;;;;5009481;28;20042;-70
2021/06/12 08:37:28;;;;;;;18.58;9.82;;;22.10;97.10;;;;;;5009508;28;20056;-70
2021/06/12 08:39:55;;;;;;;14.93;9.23;;;22.10;97.40;;;;;;5008936;28;20046;-71
2021/06/12 08:42:21;;;;;;;18.08;10.73;;;22.10;97.70;;;;;;5010408;28;20106;-69
2021/06/12 08:44:48;;;;;;;20.75;11.32;;;22.00;97.60;;;;;;5009508;28;20123;-70
2021/06/12 08:47:14;;;;;;;24.10;12.57;;;22.00;97.80;;;;;;5011975;28;20121;-69
2021/06/12 08:49:41;;;;;;;19.83;11.85;;;21.90;97.90;;;;;;5013569;28;20148;-70
2021/06/12 08:52:07;;;;;;;20.80;11.35;;;22.00;97.90;;;;;;5009965;28;20038;-70
2021/06/12 08:54:33;;;;;;;18.58;10.10;;;22.10;97.60;;;;;;5013260;28;20036;-69
2021/06/12 08:56:58;;;;;;;20.15;12.02;;;22.30;97.40;;;;;;5014947;28;20026;-70
2021/06/12 08:59:26;;;;;;;17.70;11.85;;;22.30;97.30;;;;;;5013011;28;20041;-69
2021/06/12 09:01:52;;;;;;;;;;;22.40;97.20;;;;;;5014063;28;20133;-69
2021/06/12 09:04:30;;;;;;;19.83;10.32;;;22.60;96.90;;;;;;5012174;28;20012;-69
2021/06/12 09:07:14;;;;;;;;;;;22.60;96.60;;;;;;5013220;28;20034;-68
2021/06/12 09:09:40;;;;;;;17.20;9.88;;;22.50;96.70;;;;;;5012872;28;20338;-69
2021/06/12 09:12:06;;;;;;;16.85;9.63;;;22.80;96.60;;;;;;5014795;28;20022;-70
2021/06/12 09:14:32;;;;;;;16.45;10.00;;;23.10;96.30;;;;;;5013003;28;20585;-68
2021/06/12 09:16:58;;;;;;;16.00;10.05;;;22.90;96.20;;;;;;5013094;28;20038;-68
2021/06/12 09:19:23;;;;;;;17.98;10.48;;;22.80;96.30;;;;;;5012859;28;20034;-69
2021/06/12 09:21:50;;;;;;;13.73;8.55;;;22.60;96.40;;;;;;5012510;28;20053;-70
2021/06/12 09:24:26;;;;;;;19.25;9.82;;;22.60;96.50;;;;;;5014389;28;20029;-70
2021/06/12 09:26:58;;;;;;;14.88;9.98;;;22.60;96.70;;;;;;5028122;28;20038;-71
2021/06/12 09:29:34;;;;;;;15.02;9.85;;;22.50;96.90;;;;;;5012656;28;20030;-69
2021/06/12 09:32:00;;;;;;;15.57;9.50;;;22.50;96.70;;;;;;5012405;28;20041;-69
2021/06/12 09:34:26;;;;;;;13.75;8.90;;;22.30;96.70;;;;;;5010812;28;20034;-68
2021/06/12 09:36:52;;;;;;;13.90;8.23;;;22.30;96.80;;;;;;5012623;28;20107;-68
2021/06/12 09:39:21;;;;;;;16.95;9.40;;;22.50;96.80;;;;;;5013995;28;20101;-69
2021/06/12 09:41:53;;;;;;;16.85;9.68;;;22.60;96.70;;;;;;5012111;28;20034;-69
2021/06/12 09:44:40;;;;;;;13.27;9.23;;;22.80;96.40;;;;;;5011820;28;20069;-68
2021/06/12 09:47:23;;;;;;;12.25;8.15;;;22.70;96.40;;;;;;5011252;28;20050;-70
2021/06/12 09:49:49;;;;;;;14.35;8.60;;;22.80;96.40;;;;;;5010655;28;20111;-68
2021/06/12 09:52:17;;;;;;;15.55;10.10;;;22.70;96.30;;;;;;5011414;28;20062;-75
2021/06/12 09:54:44;;;;;;;17.65;9.90;;;22.30;96.10;;;;;;5010274;28;20029;-70
2021/06/12 09:57:16;;;;;;;17.40;10.13;;;22.30;96.60;;;;;;5012239;28;20029;-71
2021/06/12 09:59:53;;;;;;;17.23;9.93;;;22.30;97.20;;;;;;5011084;28;20122;-71
2021/06/12 10:02:45;;;;;;;14.55;8.98;;;22.20;97.40;;;;;;5011248;28;20132;-69
2021/06/12 10:05:13;;;;;;;18.60;10.02;;;22.30;97.30;;;;;;5010140;28;20111;-69
2021/06/12 10:07:39;;;;;;;;;;;22.10;97.40;;;;;;5011509;28;20050;-70
2021/06/12 10:10:12;;;;;;;15.88;9.20;;;22.20;97.10;;;;;;5010718;28;19909;-69
2021/06/12 10:12:38;;;;;;;14.32;8.38;;;22.10;96.20;;;;;;5010112;28;20245;-70
2021/06/12 10:15:06;;;;;;;11.88;8.52;;;22.20;96.10;;;;;;5028004;28;20026;-70
2021/06/12 10:17:40;;;;;;;;;;;22.70;95.60;;;;;;5011445;28;20034;-70
2021/06/12 10:20:07;;;;;;;17.05;9.60;;;22.70;95.20;;;;;;5010334;28;19909;-70
2021/06/12 10:22:32;;;;;;;12.38;9.15;;;22.50;95.00;;;;;;5011127;28;20383;-70
2021/06/12 10:24:59;;;;;;;14.68;9.32;;;22.60;95.40;;;;;;5010713;28;20046;-70
2021/06/12 10:27:26;;;;;;;12.75;8.88;;;22.70;95.50;;;;;;5010574;28;20523;-70
2021/06/12 10:29:51;;;;;;;13.00;8.27;;;22.60;95.30;;;;;;5012237;28;20049;-71
2021/06/12 10:32:18;;;;;;;12.77;8.65;;;22.60;95.10;;;;;;5010830;28;20339;-74
2021/06/12 10:34:44;;;;;;;13.85;8.27;;;22.70;95.20;;;;;;5010196;28;20069;-72
2021/06/12 10:37:11;;;;;;;15.70;8.73;;;22.90;94.70;;;;;;5009625;28;20041;-74
2021/06/12 10:39:39;;;;;;;9.93;6.77;;;23.20;94.20;;;;;;5009469;28;20050;-73
2021/06/12 10:42:11;;;;;;;;;;;23.30;93.80;;;;;;5012304;28;20084;-77
2021/06/12 10:44:37;;;;;;;11.32;4.55;;;23.30;92.10;;;;;;5007128;28;82111;-70
2021/06/12 10:47:03;;;;;;;8.88;3.42;;;23.00;91.70;;;;;;5010464;28;20049;-73
2021/06/12 10:49:31;;;;;;;6.15;3.75;;;22.90;91.20;;;;;;5009493;28;20100;-72
2021/06/12 10:51:58;;;;;;;13.77;3.83;;;22.60;91.00;;;;;;5011176;28;20033;-70
2021/06/12 10:54:26;;;;;;;9.05;3.78;;;22.70;91.00;;;;;;5012814;28;20030;-75
2021/06/12 10:56:54;;;;;;;7.07;4.22;;;22.60;90.90;;;;;;5011293;28;20033;-72
2021/06/12 10:59:32;;;;;;;12.02;4.78;;;22.50;91.00;;;;;;5010723;28;20026;-69
2021/06/12 11:02:12;;;;;;;12.98;5.38;;;22.70;91.30;;;;;;5010805;28;20041;-69
2021/06/12 11:04:51;;;;;;;6.68;3.92;;;22.90;91.00;;;;;;5010678;28;20026;-71
2021/06/12 11:07:42;;;;;;;11.48;5.22;;;23.20;90.70;;;;;;5010516;28;20542;-71
2021/06/12 11:10:11;;;;;;;15.00;4.43;;;23.50;90.60;;;;;;5010662;28;20049;-72
2021/06/12 11:12:43;;;;;;;11.52;3.55;;;23.70;90.30;;;;;;5010690;28;20257;-74
2021/06/12 11:15:14;;;;;;;13.88;4.10;;;23.80;90.00;;;;;;5012530;28;20101;-71
2021/06/12 11:17:42;;;;;;;7.53;2.92;;;23.60;86.30;;;;;;5009596;28;20053;-71
2021/06/12 11:20:10;;;;;;;8.32;2.33;;;23.40;85.10;;;;;;5010369;28;20049;-70
2021/06/12 11:22:51;;;;;;;4.80;2.15;;;23.20;84.10;;;;;;5010373;28;20042;-72
2021/06/12 11:25:17;;;;;;;6.47;3.22;;;23.10;83.90;;;;;;5010676;28;20108;-71
2021/06/12 11:27:49;;;;;;;13.13;3.95;;;23.00;84.90;;;;;;5010392;28;20414;-74
2021/06/12 11:30:17;;;;;;;10.88;3.53;;;23.10;86.70;;;;;;5011841;28;20079;-73
2021/06/12 11:32:49;;;;;;;14.10;6.78;;;23.40;87.90;;;;;;5010009;28;20095;-72
2021/06/12 11:35:50;;;;;;;6.38;3.15;;;23.50;89.00;;;;;;5009399;28;20360;-72
2021/06/12 11:38:29;;;;;;;11.82;3.67;;;23.60;86.10;;;;;;4999702;28;20042;-72
2021/06/12 11:41:02;;;;;;;7.18;3.10;;;23.60;85.90;;;;;;5001873;28;20096;-72
2021/06/12 11:43:43;;;;;;;7.10;3.80;;;23.40;86.60;;;;;;5009677;28;20360;-71
2021/06/12 11:46:14;;;;;;;7.80;3.55;;;23.50;86.20;;;;;;5008763;28;20074;-73
2021/06/12 11:48:45;;;;;;;9.88;2.72;;;23.50;86.20;;;;;;5009774;28;20026;-72
2021/06/12 11:51:22;;;;;;;10.18;2.60;;;23.50;85.40;;;;;;5010247;28;20076;-75
2021/06/12 11:54:14;;;;;;;5.38;2.80;;;23.30;85.20;;;;;;5008427;28;20348;-75
2021/06/12 11:56:58;;;;;;;6.13;2.58;;;23.00;83.70;;;;;;5008361;28;20091;-73
2021/06/12 11:59:29;;;;;;;9.35;3.72;;;23.30;83.60;;;;;;5010080;28;20472;-74
2021/06/12 12:02:00;;;;;;;6.07;2.28;;;23.50;84.80;;;;;;5009348;28;20030;-75
2021/06/12 12:04:39;;;;;;;9.13;3.40;;;23.80;83.80;;;;;;5009806;28;20104;-76
2021/06/12 12:07:13;;;;;;;6.88;2.83;;;23.60;83.00;;;;;;5009920;28;20037;-75
2021/06/12 12:09:47;;;;;;;8.18;2.83;;;23.60;83.10;;;;;;5009747;28;20022;-76
2021/06/12 12:12:18;;;;;;;13.35;3.22;;;23.50;82.30;;;;;;5011431;28;20018;-74
2021/06/12 12:14:46;;;;;;;4.03;2.13;;;23.30;81.00;;;;;;5010044;28;20048;-75
2021/06/12 12:17:27;;;;;;;6.82;1.98;;;23.20;80.20;;;;;;5009616;28;20042;-75
2021/06/12 12:20:10;;;;;;;6.10;2.20;;;23.40;80.20;;;;;;5008320;28;20061;-76
2021/06/12 12:22:45;;;;;;;7.72;2.67;;;23.50;80.60;;;;;;5009428;28;20038;-76
2021/06/12 12:25:13;;;;;;;5.72;2.50;;;23.70;80.20;;;;;;5009103;28;20107;-73
2021/06/12 12:27:39;;;;;;;15.82;4.45;;;23.70;80.10;;;;;;5009250;28;20380;-70
2021/06/12 12:30:07;;;;;;;9.20;3.00;;;23.80;80.40;;;;;;5011000;28;20029;-79
2021/06/12 12:32:33;;;;;;;10.85;2.78;;;23.80;80.50;;;;;;5009505;28;20030;-78
2021/06/12 12:35:14;;;;;;;5.60;2.63;;;23.80;77.50;;;;;;5009299;28;20112;-78
2021/06/12 12:37:39;;;;;;;6.93;2.53;;;23.70;75.80;;;;;;5009776;28;20050;-76
2021/06/12 12:40:19;;;;;;;11.00;2.33;;;23.40;74.80;;;;;;5009445;28;20030;-75
2021/06/12 12:42:45;;;;;;;11.27;2.38;;;23.30;75.00;;;;;;5009101;28;20095;-76